Time;durP1;ratioP1;P1;durP2;ratioP2;P2;SDS_P1;SDS_P2;PMS_P1;PMS_P2;Temp;Humidity;BMP_temperature;BMP_pressure;BME280_temperature;BME280_humidity;BME280_pressure;Samples;Min_cycle;Max_cycle;Signal;HPM_P1;HPM_P2
2021/08/07 00:00:37;;;;;;;;;;;15.30;99.90;;;;;;5068471;28;19939;-73
2021/08/07 00:03:08;;;;;;;;;;;15.20;99.90;;;;;;5064684;28;19924;-73
2021/08/07 00:05:40;;;;;;;;;;;15.20;99.90;;;;;;5042155;28;19925;-72
2021/08/07 00:08:12;;;;;;;;;;;15.20;99.90;;;;;;5048365;28;20371;-72
2021/08/07 00:10:44;;;;;;;;;;;15.20;99.90;;;;;;5072299;28;19928;-73
2021/08/07 00:13:15;;;;;;;;;;;15.20;99.90;;;;;;5057755;28;19930;-73
2021/08/07 00:15:42;;;;;;;;;;;15.20;99.90;;;;;;5073555;28;19947;-73
2021/08/07 00:18:09;;;;;;;;;;;15.20;99.90;;;;;;5073308;28;19924;-73
2021/08/07 00:20:40;;;;;;;;;;;15.20;99.90;;;;;;5074825;28;19924;-73
2021/08/07 00:23:07;;;;;;;;;;;15.20;99.90;;;;;;5056538;28;20297;-73
2021/08/07 00:25:39;;;;;;;;;;;15.20;99.90;;;;;;5073717;28;19984;-73
2021/08/07 00:28:06;;;;;;;;;;;15.20;99.90;;;;;;5073347;28;20449;-72
2021/08/07 00:30:37;;;;;;;;;;;15.20;99.90;;;;;;5057916;28;19930;-73
2021/08/07 00:33:06;;;;;;;;;;;15.10;99.90;;;;;;5056516;28;19962;-73
2021/08/07 00:35:37;;;;;;;;;;;15.10;99.90;;;;;;5073460;28;19963;-73
2021/08/07 00:38:09;;;;;;;;;;;15.20;99.90;;;;;;5073876;28;19955;-72
2021/08/07 00:40:36;;;;;;;;;;;15.20;99.90;;;;;;5056852;28;19948;-73
2021/08/07 00:43:09;;;;;;;;;;;15.10;99.90;;;;;;5066251;28;19925;-73
2021/08/07 00:45:39;;;;;;;;;;;15.10;99.90;;;;;;5053018;28;19929;-73
2021/08/07 00:48:18;;;;;;;;;;;15.10;99.90;;;;;;5054931;28;20327;-73
2021/08/07 00:50:54;;;;;;;;;;;15.10;99.90;;;;;;5053020;28;19925;-73
2021/08/07 00:53:26;;;;;;;;;;;15.10;99.90;;;;;;5033190;28;19925;-73
2021/08/07 00:56:03;;;;;;;;;;;15.10;99.90;;;;;;5018246;28;20338;-73
2021/08/07 00:58:34;;;;;;;;;;;15.10;99.90;;;;;;5017462;28;19936;-73
2021/08/07 01:01:05;;;;;;;;;;;15.10;99.90;;;;;;5031537;28;19925;-73
2021/08/07 01:03:45;;;;;;;;;;;15.10;99.90;;;;;;5032363;28;19925;-73
2021/08/07 01:06:22;;;;;;;;;;;15.10;99.90;;;;;;5032349;28;19929;-73
2021/08/07 01:09:09;;;;;;;;;;;15.10;99.90;;;;;;5032493;28;19940;-73
2021/08/07 01:11:48;;;;;;;;;;;15.10;99.90;;;;;;5032332;28;20548;-73
2021/08/07 01:14:23;;;;;;;;;;;15.10;99.90;;;;;;5017106;28;19932;-73
2021/08/07 01:16:51;;;;;;;;;;;15.10;99.90;;;;;;5032363;28;19925;-73
2021/08/07 01:19:24;;;;;;;;;;;15.10;99.90;;;;;;5016643;28;19968;-73
2021/08/07 01:21:59;;;;;;;;;;;15.00;99.90;;;;;;5031496;28;20280;-73
2021/08/07 01:24:37;;;;;;;;;;;15.00;99.90;;;;;;5016493;28;20288;-73
2021/08/07 01:27:16;;;;;;;;;;;15.00;99.90;;;;;;5016162;28;20376;-73
2021/08/07 01:29:46;;;;;;;;;;;14.90;99.90;;;;;;5032077;28;19924;-73
2021/08/07 01:32:13;;;;;;;;;;;14.90;99.90;;;;;;5015393;28;20350;-73
2021/08/07 01:34:44;;;;;;;;;;;14.90;99.90;;;;;;5033522;28;19929;-73
2021/08/07 01:37:24;;;;;;;;;;;14.90;99.90;;;;;;5016939;28;19975;-73
2021/08/07 01:40:19;;;;;;;;;;;14.90;99.90;;;;;;5030391;28;19926;-73
2021/08/07 01:43:04;;;;;;;;;;;14.90;99.90;;;;;;5017854;28;19929;-73
2021/08/07 01:45:40;;;;;;;;;;;14.90;99.90;;;;;;5015859;28;20011;-72
2021/08/07 01:48:15;;;;;;;;;;;14.90;99.90;;;;;;5016161;28;19956;-73
2021/08/07 01:51:14;;;;;;;;;;;14.90;99.90;;;;;;5017248;28;19929;-73
2021/08/07 01:53:53;;;;;;;;;;;14.90;99.90;;;;;;5031825;28;19925;-73
2021/08/07 01:56:28;;;;;;;;;;;14.90;99.90;;;;;;5015617;28;19967;-73
2021/08/07 01:59:03;;;;;;;;;;;14.90;99.90;;;;;;5015952;28;19925;-73
2021/08/07 02:01:32;;;;;;;;;;;14.90;99.90;;;;;;5015274;28;19925;-73
2021/08/07 02:04:01;;;;;;;;;;;14.90;99.90;;;;;;5031706;28;19956;-73
2021/08/07 02:06:34;;;;;;;;;;;14.90;99.90;;;;;;5015789;28;20019;-73
2021/08/07 02:09:01;;;;;;;;;;;14.90;99.90;;;;;;5015295;28;20395;-73
2021/08/07 02:11:40;;;;;;;;;;;14.90;99.90;;;;;;5016350;28;19933;-73
2021/08/07 02:14:15;;;;;;;;;;;14.80;99.90;;;;;;5015345;28;20021;-73
2021/08/07 02:16:43;;;;;;;;;;;14.90;99.90;;;;;;5031456;28;19960;-73
2021/08/07 02:19:20;;;;;;;;;;;14.80;99.90;;;;;;5031550;28;19961;-73
2021/08/07 02:21:47;;;;;;;;;;;14.80;99.90;;;;;;5030809;28;20020;-73
2021/08/07 02:24:19;;;;;;;;;;;14.80;99.90;;;;;;5015713;28;19925;-73
2021/08/07 02:26:53;;;;;;;;;;;14.80;99.90;;;;;;5015771;28;19925;-73
2021/08/07 02:29:25;;;;;;;;;;;14.80;99.90;;;;;;5015616;28;20280;-73
2021/08/07 02:32:02;;;;;;;;;;;14.80;99.90;;;;;;5030910;28;20005;-73
2021/08/07 02:34:36;;;;;;;;;;;14.80;99.90;;;;;;5031147;28;19960;-73
2021/08/07 02:37:14;;;;;;;;;;;14.70;99.90;;;;;;5031263;28;20434;-73
2021/08/07 02:39:48;;;;;;;;;;;14.70;99.90;;;;;;5015609;28;19979;-73
2021/08/07 02:42:15;;;;;;;;;;;14.70;99.90;;;;;;5030573;28;20368;-73
2021/08/07 02:44:47;;;;;;;;;;;14.70;99.90;;;;;;5015444;28;20028;-73
2021/08/07 02:47:24;;;;;;;;;;;14.70;99.90;;;;;;5015967;28;20014;-73
2021/08/07 02:50:00;;;;;;;;;;;14.70;99.90;;;;;;5030883;28;20302;-73
2021/08/07 02:52:34;;;;;;;;;;;14.70;99.90;;;;;;5015247;28;20351;-73
2021/08/07 02:55:11;;;;;;;;;;;14.70;99.90;;;;;;5015971;28;19925;-73
2021/08/07 02:57:43;;;;;;;;;;;14.70;99.90;;;;;;5031560;28;20291;-73
2021/08/07 03:00:14;;;;;;;;;;;14.70;99.90;;;;;;5031144;28;19933;-73
2021/08/07 03:02:46;;;;;;;;;;;14.60;99.90;;;;;;5030020;28;20403;-73
2021/08/07 03:05:20;;;;;;;;;;;14.60;99.90;;;;;;5014895;28;19975;-73
2021/08/07 03:07:57;;;;;;;;;;;14.60;99.90;;;;;;5015693;28;20387;-73
2021/08/07 03:10:32;;;;;;;;;;;14.60;99.90;;;;;;5015384;28;19932;-73
2021/08/07 03:12:59;;;;;;;;;;;14.60;99.90;;;;;;5030416;28;19967;-73
2021/08/07 03:15:28;;;;;;;;;;;14.60;99.90;;;;;;5030314;28;19969;-73
2021/08/07 03:17:55;;;;;;;;;;;14.50;99.90;;;;;;5014194;28;19926;-73
2021/08/07 03:20:30;;;;;;;;;;;14.50;99.90;;;;;;5014250;28;19925;-73
2021/08/07 03:23:02;;;;;;;;;;;14.40;99.90;;;;;;5046343;28;20334;-73
2021/08/07 03:25:37;;;;;;;;;;;14.30;99.90;;;;;;5031264;28;19925;-73
2021/08/07 03:28:15;;;;;;;;;;;14.30;99.90;;;;;;5015675;28;19925;-73
2021/08/07 03:30:47;;;;;;;;;;;14.20;99.90;;;;;;5030106;28;19929;-73
2021/08/07 03:33:14;;;;;;;;;;;14.20;99.90;;;;;;5029854;28;19975;-73
2021/08/07 03:35:46;;;;;;;;;;;14.20;99.90;;;;;;5030294;28;19933;-73
2021/08/07 03:38:18;;;;;;;;;;;14.20;99.90;;;;;;5014516;28;19929;-73
2021/08/07 03:40:45;;;;;;;;;;;14.20;99.90;;;;;;5030242;28;19926;-73
2021/08/07 03:43:23;;;;;;;;;;;14.20;99.90;;;;;;5029678;28;19994;-73
2021/08/07 03:45:51;;;;;;;;;;;14.10;99.90;;;;;;5031615;28;19925;-73
2021/08/07 03:48:19;;;;;;;;;;;14.10;99.90;;;;;;5030166;28;19979;-73
2021/08/07 03:50:49;;;;;;;;;;;14.10;99.90;;;;;;5029983;28;19928;-73
2021/08/07 03:53:29;;;;;;;;;;;14.10;99.90;;;;;;5015861;28;19925;-73
2021/08/07 03:55:57;;;;;;;;;;;14.10;99.90;;;;;;5029838;28;19925;-73
2021/08/07 03:58:30;;;;;;;;;;;14.10;99.90;;;;;;5014643;28;19925;-73
2021/08/07 04:01:15;;;;;;;;;;;14.10;99.90;;;;;;5015830;28;20406;-73
2021/08/07 04:03:41;;;;;;;;;;;14.00;99.90;;;;;;5029991;28;19925;-73
2021/08/07 04:06:13;;;;;;;;;;;14.00;99.90;;;;;;5031161;28;20035;-73
2021/08/07 04:08:40;;;;;;;;;;;14.00;99.90;;;;;;5029688;28;19925;-73
2021/08/07 04:11:12;;;;;;;;;;;14.10;99.90;;;;;;5029726;28;19925;-73
2021/08/07 04:13:52;;;;;;;;;;;14.00;99.90;;;;;;5015510;28;20027;-73
2021/08/07 04:16:19;;;;;;;;;;;14.10;99.90;;;;;;5013504;28;19971;-73
2021/08/07 04:18:47;;;;;;;;;;;14.10;99.90;;;;;;5029862;28;19925;-73
2021/08/07 04:21:21;;;;;;;;;;;14.10;99.90;;;;;;5013936;28;19976;-73
2021/08/07 04:23:48;;;;;;;;;;;14.20;99.90;;;;;;5029913;28;20394;-73
2021/08/07 04:26:20;;;;;;;;;;;14.20;99.90;;;;;;5029878;28;19987;-73
2021/08/07 04:28:52;;;;;;;;;;;14.20;99.90;;;;;;5029912;28;20283;-73
2021/08/07 04:31:19;;;;;;;;;;;14.20;99.90;;;;;;5029254;28;20036;-73
2021/08/07 04:33:51;;;;;;;;;;;14.30;99.90;;;;;;5029725;28;19925;-73
2021/08/07 04:36:23;;;;;;;;;;;14.30;99.90;;;;;;5031113;28;20294;-73
2021/08/07 04:38:55;;;;;;;;;;;14.40;99.90;;;;;;5033560;28;19925;-73
2021/08/07 04:41:23;;;;;;;;;;;14.40;99.90;;;;;;5032885;28;19933;-73
2021/08/07 04:43:58;;;;;;;;;;;14.40;99.90;;;;;;5033138;28;19924;-73
2021/08/07 04:46:30;;;;;;;;;;;14.40;99.90;;;;;;5033045;28;19925;-73
2021/08/07 04:49:02;;;;;;;;;;;14.50;99.90;;;;;;5017259;28;19964;-73
2021/08/07 04:51:34;;;;;;;;;;;14.50;99.90;;;;;;5033826;28;19956;-73
2021/08/07 04:54:06;;;;;;;;;;;14.50;99.90;;;;;;5034432;28;20014;-73
2021/08/07 04:56:35;;;;;;;;;;;14.50;99.90;;;;;;5032978;28;20027;-73
2021/08/07 04:59:10;;;;;;;;;;;14.50;99.90;;;;;;5017840;28;20016;-73
2021/08/07 05:01:37;;;;;;;;;;;14.50;99.90;;;;;;5032625;28;20276;-73
2021/08/07 05:04:04;;;;;;;;;;;14.60;99.90;;;;;;5016056;28;19929;-73
2021/08/07 05:06:36;;;;;;;;;;;14.60;99.90;;;;;;5017187;28;19925;-73
2021/08/07 05:09:03;;;;;;;;;;;14.70;99.90;;;;;;5032706;28;20004;-73
2021/08/07 05:11:36;;;;;;;;;;;14.70;99.90;;;;;;5016828;28;19956;-73
2021/08/07 05:14:06;;;;;;;;;;;14.70;99.90;;;;;;5016713;28;19932;-73
2021/08/07 05:16:38;;;;;;;;;;;14.70;99.90;;;;;;5032601;28;19962;-73
2021/08/07 05:19:04;;;;;;;;;;;14.70;99.90;;;;;;5032441;28;19926;-73
2021/08/07 05:21:37;;;;;;;;;;;14.70;99.90;;;;;;5031982;28;19987;-73
2021/08/07 05:24:03;;;;;;;;;;;14.70;99.90;;;;;;5032562;28;19925;-73
2021/08/07 05:26:37;;;;;;;;;;;14.80;99.90;;;;;;5032708;28;20383;-72
2021/08/07 05:29:08;;;;;;;;;;;14.80;99.90;;;;;;5016749;28;19925;-74
2021/08/07 05:31:40;;;;;;;;;;;14.80;99.90;;;;;;5015918;28;20019;-72
2021/08/07 05:34:13;;;;;;;;;;;14.80;99.90;;;;;;5032242;28;19952;-73
2021/08/07 05:36:41;;;;;;;;;;;14.80;99.90;;;;;;5017559;28;19932;-72
2021/08/07 05:39:13;;;;;;;;;;;14.80;99.90;;;;;;5044460;28;19925;-73
2021/08/07 05:41:45;;;;;;;;;;;14.80;99.90;;;;;;5045873;28;19948;-72
2021/08/07 05:44:17;;;;;;;;;;;14.80;99.90;;;;;;5030668;28;19925;-73
2021/08/07 05:46:43;;;;;;;;;;;14.80;99.90;;;;;;5032528;28;19971;-72
2021/08/07 05:49:12;;;;;;;;;;;14.80;99.90;;;;;;5024322;28;20422;-72
2021/08/07 05:51:39;;;;;;;;;;;14.80;99.90;;;;;;5014821;28;19975;-72
2021/08/07 05:54:12;;;;;;;;;;;14.90;99.90;;;;;;5031661;28;19926;-72
2021/08/07 05:56:44;;;;;;;;;;;15.00;99.90;;;;;;5047041;28;20008;-74
2021/08/07 05:59:11;;;;;;;;;;;15.00;99.90;;;;;;5048063;28;19929;-72
2021/08/07 06:01:47;;;;;;;;;;;15.00;99.90;;;;;;5045035;28;20388;-72
2021/08/07 06:04:15;;;;;;;;;;;15.10;99.90;;;;;;5032302;28;19925;-72
2021/08/07 06:06:41;;;;;;;;;;;15.20;99.90;;;;;;5047563;28;19932;-73
2021/08/07 06:09:13;;;;;;;;;;;15.30;99.90;;;;;;5031759;28;19970;-73
2021/08/07 06:11:40;;;;;;;;;;;15.40;99.90;;;;;;5014772;28;20024;-73
2021/08/07 06:14:12;;;;;;;;;;;15.40;99.90;;;;;;5031374;28;19952;-72
2021/08/07 06:16:44;;;;;;;;;;;15.50;99.90;;;;;;5046946;28;19932;-72
2021/08/07 06:19:16;;;;;;;;;;;15.60;99.90;;;;;;5030849;28;19925;-73
2021/08/07 06:21:43;;;;;;;;;;;15.70;99.90;;;;;;5047090;28;19995;-72
2021/08/07 06:24:15;;;;;;;;;;;15.80;99.90;;;;;;5032015;28;19936;-73
2021/08/07 06:26:47;;;;;;;;;;;15.70;99.90;;;;;;5044920;28;19936;-72
2021/08/07 06:29:15;;;;;;;;;;;15.70;99.90;;;;;;5050662;28;19932;-73
2021/08/07 06:31:42;;;;;;;;;;;15.70;99.90;;;;;;5066458;28;19975;-72
2021/08/07 06:34:14;;;;;;;;;;;15.70;99.90;;;;;;5050426;28;19929;-72
2021/08/07 06:36:41;;;;;;;;;;;15.80;99.90;;;;;;5051680;28;19982;-73
2021/08/07 06:39:08;;;;;;;;;;;15.80;99.90;;;;;;5050926;28;19933;-72
2021/08/07 06:41:35;;;;;;;;;;;15.80;99.90;;;;;;5044606;28;19931;-72
2021/08/07 06:44:17;;;;;;;;;;;15.90;99.90;;;;;;5030539;28;20307;-73
2021/08/07 06:46:54;;;;;;;;;;;16.00;99.90;;;;;;5042241;28;19924;-73
2021/08/07 06:49:26;;;;;;;;;;;16.10;99.90;;;;;;5070218;28;19925;-72
2021/08/07 06:51:54;;;;;;;;;;;16.20;99.90;;;;;;5035803;28;19947;-72
2021/08/07 06:54:28;;;;;;;;;;;16.30;99.90;;;;;;5030435;28;20405;-72
2021/08/07 06:56:55;;;;;;;;;;;16.40;99.90;;;;;;5042173;28;20283;-72
2021/08/07 06:59:27;;;;;;;;;;;16.50;99.90;;;;;;5061541;28;19931;-72
2021/08/07 07:01:54;;;;;;;;;;;16.50;99.90;;;;;;5049319;28;19928;-72
2021/08/07 07:04:28;;;;;;;;;;;16.60;99.90;;;;;;5066048;28;19932;-72
2021/08/07 07:06:57;;;;;;;;;;;16.70;99.90;;;;;;5050333;28;19975;-73
2021/08/07 07:09:29;;;;;;;;;;;16.90;99.90;;;;;;5050015;28;20057;-73
2021/08/07 07:11:56;;;;;;;;;;;17.10;99.90;;;;;;5058555;28;20379;-73
2021/08/07 07:14:24;;;;;;;;;;;17.20;99.90;;;;;;5069572;28;19929;-73
2021/08/07 07:16:52;;;;;;;;;;;17.20;99.90;;;;;;5037583;28;19925;-73
2021/08/07 07:19:19;;;;;;;;;;;17.40;99.90;;;;;;5030447;28;19925;-73
2021/08/07 07:21:52;;;;;;;;;;;17.50;99.90;;;;;;5035822;28;20019;-73
2021/08/07 07:24:20;;;;;;;;;;;17.60;99.90;;;;;;5053694;28;20463;-72
2021/08/07 07:26:49;;;;;;;;;;;17.70;99.90;;;;;;5070205;28;20363;-73
2021/08/07 07:29:21;;;;;;;;;;;17.80;99.90;;;;;;5054649;28;19925;-73
2021/08/07 07:31:51;;;;;;;;;;;17.90;99.90;;;;;;5033219;28;19933;-73
2021/08/07 07:34:23;;;;;;;;;;;17.90;99.90;;;;;;5046721;28;19975;-73
2021/08/07 07:36:54;;;;;;;;;;;18.00;99.90;;;;;;5041968;28;19932;-72
2021/08/07 07:39:22;;;;;;;;;;;18.10;99.90;;;;;;5030573;28;19925;-73
2021/08/07 07:41:53;;;;;;;;;;;18.20;99.90;;;;;;5053945;28;19967;-72
2021/08/07 07:44:26;;;;;;;;;;;18.30;99.90;;;;;;5043274;28;19931;-72
2021/08/07 07:46:53;;;;;;;;;;;18.40;99.90;;;;;;5040499;28;19968;-72
2021/08/07 07:49:20;;;;;;;;;;;18.50;99.90;;;;;;5058112;28;20057;-72
2021/08/07 07:51:46;;;;;;;;;;;18.60;99.90;;;;;;5066139;28;20011;-73
2021/08/07 07:54:20;;;;;;;;;;;18.70;99.90;;;;;;5055046;28;19930;-73
2021/08/07 07:56:52;;;;;;;;;;;18.80;99.90;;;;;;5065623;28;19925;-72
2021/08/07 07:59:24;;;;;;;;;;;18.90;99.90;;;;;;5051920;28;19978;-72
2021/08/07 08:02:01;;;;;;;;;;;19.00;99.90;;;;;;5048363;28;19924;-72
2021/08/07 08:04:29;;;;;;;;;;;19.20;99.90;;;;;;5051882;28;19931;-73
2021/08/07 08:06:57;;;;;;;;;;;19.30;99.90;;;;;;5040126;28;19962;-73
2021/08/07 08:09:30;;;;;;;;;;;19.40;99.90;;;;;;5044274;28;19925;-72
2021/08/07 08:12:04;;;;;;;;;;;19.50;99.90;;;;;;5053121;28;19960;-72
2021/08/07 08:14:32;;;;;;;;;;;19.60;99.90;;;;;;5042347;28;20572;-73
2021/08/07 08:17:06;;;;;;;;;;;19.70;99.90;;;;;;5051158;28;19925;-72
2021/08/07 08:19:34;;;;;;;;;;;19.70;99.90;;;;;;5049035;28;19924;-72
2021/08/07 08:22:01;;;;;;;;;;;19.80;99.90;;;;;;5058959;28;19955;-73
2021/08/07 08:24:31;;;;;;;;;;;19.80;99.90;;;;;;5070665;28;19931;-73
2021/08/07 08:27:03;;;;;;;;;;;19.80;99.90;;;;;;5061753;28;19925;-73
2021/08/07 08:29:30;;;;;;;;;;;19.80;99.90;;;;;;5046304;28;19944;-72
2021/08/07 08:31:59;;;;;;;;;;;19.80;99.90;;;;;;5070207;28;19924;-73
2021/08/07 08:34:26;;;;;;;;;;;19.80;99.90;;;;;;5038547;28;19925;-71
2021/08/07 08:36:58;;;;;;;;;;;19.80;99.90;;;;;;5064311;28;19962;-72
2021/08/07 08:39:25;;;;;;;;;;;19.80;99.90;;;;;;5052800;28;20352;-73
2021/08/07 08:41:57;;;;;;;;;;;19.90;99.90;;;;;;5050611;28;19965;-72
2021/08/07 08:44:24;;;;;;;;;;;19.90;99.90;;;;;;5047103;28;20413;-73
2021/08/07 08:46:56;;;;;;;;;;;20.00;99.90;;;;;;5048772;28;19932;-73
2021/08/07 08:49:29;;;;;;;;;;;20.00;99.90;;;;;;5036788;28;20495;-73
2021/08/07 08:52:02;;;;;;;;;;;20.10;99.90;;;;;;5048260;28;19964;-73
2021/08/07 08:54:29;;;;;;;;;;;20.10;99.90;;;;;;5052661;28;19980;-73
2021/08/07 08:56:56;;;;;;;;;;;20.20;99.90;;;;;;5036988;28;20510;-73
2021/08/07 08:59:28;;;;;;;;;;;20.20;99.90;;;;;;5051230;28;19947;-73
2021/08/07 09:01:55;;;;;;;;;;;20.20;99.90;;;;;;5070585;28;19978;-73
2021/08/07 09:04:25;;;;;;;;;;;20.30;99.90;;;;;;5070509;28;20288;-71
2021/08/07 09:06:53;;;;;;;;;;;20.40;99.90;;;;;;5056312;28;19968;-73
2021/08/07 09:09:41;;;;;;;;;;;20.50;99.90;;;;;;5056848;28;20011;-73
2021/08/07 09:12:15;;;;;;;;;;;20.60;99.90;;;;;;5055684;28;19924;-72
2021/08/07 09:14:46;;;;;;;;;;;20.70;99.90;;;;;;5056280;28;19924;-73
2021/08/07 09:17:15;;;;;;;;;;;20.70;99.90;;;;;;5072789;28;19955;-72
2021/08/07 09:19:48;;;;;;;;;;;20.80;99.90;;;;;;5072618;28;19967;-72
2021/08/07 09:22:17;;;;;;;;;;;20.90;99.90;;;;;;5064041;28;19932;-72
2021/08/07 09:25:07;;;;;;;;;;;21.00;99.90;;;;;;5057958;28;20077;-73
2021/08/07 09:27:37;;;;;;;;;;;21.10;99.90;;;;;;5040285;28;19936;-72
2021/08/07 09:30:24;;;;;;;;;;;21.20;99.90;;;;;;5041952;28;19924;-72
2021/08/07 09:33:00;;;;;;;;;;;21.20;99.90;;;;;;5049922;28;19987;-72
2021/08/07 09:35:32;;;;;;;;;;;21.30;99.90;;;;;;5046210;28;19928;-73
2021/08/07 09:38:18;;;;;;;;;;;21.20;99.90;;;;;;5053667;28;19931;-73
2021/08/07 09:41:04;;;;;;;;;;;21.30;99.90;;;;;;5059325;28;20384;-72
2021/08/07 09:43:43;;;;;;;;;;;21.30;99.90;;;;;;5044340;28;19925;-73
2021/08/07 09:46:10;;;;;;;;;;;21.50;99.90;;;;;;5030008;28;19971;-72
2021/08/07 09:48:47;;;;;;;;;;;21.60;99.90;;;;;;5056306;28;19929;-72
2021/08/07 09:51:22;;;;;;;;;;;21.70;99.90;;;;;;5061501;28;19929;-72
2021/08/07 09:54:19;;;;;;;;;;;21.80;99.90;;;;;;5047571;28;19925;-72
2021/08/07 09:56:48;;;;;;;;;;;21.90;99.90;;;;;;5032456;28;19929;-72
2021/08/07 09:59:25;;;;;;;;;;;22.10;99.90;;;;;;5034203;28;20387;-72
2021/08/07 10:01:59;;;;;;;;;;;22.20;99.90;;;;;;5068348;28;19924;-72
2021/08/07 10:04:42;;;;;;;;;;;22.40;99.90;;;;;;5069764;28;19935;-73
2021/08/07 10:07:14;;;;;;;;;;;22.60;99.90;;;;;;5070141;28;20393;-73
2021/08/07 10:09:49;;;;;;;;;;;22.80;99.90;;;;;;5051669;28;19935;-73
2021/08/07 10:12:22;;;;;;;;;;;22.90;99.90;;;;;;5057795;28;19931;-73
2021/08/07 10:14:59;;;;;;;;;;;23.00;99.90;;;;;;5043467;28;19963;-73
2021/08/07 10:17:32;;;;;;;;;;;23.20;99.90;;;;;;5040155;28;19925;-73
2021/08/07 10:20:05;;;;;;;;;;;23.20;99.90;;;;;;5065821;28;19967;-73
2021/08/07 10:22:34;;;;;;;;;;;23.30;99.90;;;;;;5049271;28;19932;-73
2021/08/07 10:25:08;;;;;;;;;;;23.40;99.90;;;;;;5046740;28;20407;-73
2021/08/07 10:27:35;;;;;;;;;;;23.40;99.90;;;;;;5029673;28;20043;-73
2021/08/07 10:30:06;;;;;;;;;;;23.60;99.90;;;;;;5059385;28;20279;-73
2021/08/07 10:32:43;;;;;;;;;;;23.70;99.90;;;;;;5051547;28;19925;-73
2021/08/07 10:35:13;;;;;;;;;;;23.90;99.90;;;;;;5034437;28;19925;-73
2021/08/07 10:37:47;;;;;;;;;;;23.90;99.90;;;;;;5035466;28;19925;-73
2021/08/07 10:40:21;;;;;;;;;;;23.90;99.90;;;;;;5035509;28;19928;-73
2021/08/07 10:42:54;;;;;;;;;;;23.90;99.90;;;;;;5051270;28;19924;-73
2021/08/07 10:45:21;;;;;;;;;;;23.80;99.90;;;;;;5051193;28;20378;-73
2021/08/07 10:47:53;;;;;;;;;;;23.60;99.90;;;;;;5064871;28;20382;-73
2021/08/07 10:50:26;;;;;;;;;;;23.50;99.90;;;;;;5050093;28;19925;-73
2021/08/07 10:53:06;;;;;;;;;;;23.30;99.90;;;;;;5045761;28;19924;-73
2021/08/07 10:55:41;;;;;;;;;;;23.20;99.90;;;;;;5041481;28;20024;-73
2021/08/07 10:58:32;;;;;;;;;;;23.00;99.90;;;;;;5054721;28;19935;-73
2021/08/07 11:01:19;;;;;;;;;;;22.80;99.90;;;;;;5047522;28;19925;-73
2021/08/07 11:04:01;;;;;;;;;;;22.60;99.90;;;;;;5046497;28;19956;-73
2021/08/07 11:06:37;;;;;;;;;;;22.40;99.90;;;;;;5050434;28;19931;-73
2021/08/07 11:09:16;;;;;;;;;;;22.20;99.90;;;;;;5050441;28;19925;-73
2021/08/07 11:11:46;;;;;;;;;;;22.10;99.90;;;;;;5049896;28;19960;-73
2021/08/07 11:14:21;;;;;;;;;;;22.00;99.90;;;;;;5047225;28;19925;-73
2021/08/07 11:19:49;;;;;;;;;;;21.90;99.90;;;;;;5041336;28;20024;-73
2021/08/07 11:22:16;;;;;;;;;;;21.80;99.90;;;;;;5030268;28;19932;-73
2021/08/07 11:24:55;;;;;;;;;;;21.70;99.90;;;;;;5050717;28;19986;-73
2021/08/07 11:27:42;;;;;;;;;;;21.70;99.90;;;;;;5050562;28;20337;-73
2021/08/07 11:30:17;;;;;;;;;;;21.70;99.90;;;;;;5033376;28;19975;-73
2021/08/07 11:32:58;;;;;;;;;;;21.70;99.90;;;;;;5034824;28;19960;-73
2021/08/07 11:35:35;;;;;;;;;;;21.70;99.90;;;;;;5033232;28;19924;-73
2021/08/07 11:38:24;;;;;;;;;;;21.80;99.90;;;;;;5034324;28;20019;-73
2021/08/07 11:40:58;;;;;;;;;;;21.90;99.90;;;;;;5050395;28;20482;-73
2021/08/07 11:43:38;;;;;;;;;;;22.10;99.90;;;;;;5049996;28;19931;-74
2021/08/07 11:46:11;;;;;;;;;;;22.20;99.90;;;;;;5053285;28;19936;-74
2021/08/07 11:48:37;;;;;;;;;;;22.30;99.90;;;;;;5055337;28;19929;-73
2021/08/07 11:51:07;;;;;;;;;;;22.40;99.90;;;;;;5047434;28;19938;-73
2021/08/07 11:53:43;;;;;;;;;;;22.50;99.90;;;;;;5044171;28;19931;-73
2021/08/07 11:56:19;;;;;;;;;;;22.50;99.90;;;;;;5068636;28;20027;-73
2021/08/07 11:58:51;;;;;;;;;;;22.40;99.90;;;;;;5039249;28;19931;-73
2021/08/07 12:01:51;;;;;;;;;;;22.30;99.90;;;;;;5060248;28;19929;-73
2021/08/07 12:04:23;;;;;;;;;;;22.10;99.90;;;;;;5042356;28;19929;-73
2021/08/07 12:06:54;;;;;;;;;;;22.00;99.90;;;;;;5070543;28;19934;-72
2021/08/07 12:09:26;;;;;;;;;;;21.90;99.90;;;;;;5041491;28;19976;-73
2021/08/07 12:12:00;;;;;;;;;;;21.80;99.90;;;;;;5058031;28;19937;-72
2021/08/07 12:14:32;;;;;;;;;;;21.80;99.90;;;;;;5052402;28;19939;-73
2021/08/07 12:17:05;;;;;;;;;;;21.70;99.90;;;;;;5018148;28;19925;-72
2021/08/07 12:19:36;;;;;;;;;;;21.50;99.90;;;;;;5052569;28;20016;-74
2021/08/07 12:22:05;;;;;;;;;;;21.50;99.90;;;;;;5053107;28;20013;-73
2021/08/07 12:24:31;;;;;;;;;;;21.50;99.90;;;;;;5064887;28;20007;-73
2021/08/07 12:27:03;;;;;;;;;;;21.40;99.90;;;;;;5057847;28;19947;-72
2021/08/07 12:29:35;;;;;;;;;;;21.30;99.90;;;;;;5056088;28;19960;-73
2021/08/07 12:32:07;;;;;;;;;;;21.30;99.90;;;;;;5035911;28;19933;-73
2021/08/07 12:34:39;;;;;;;;;;;21.30;99.90;;;;;;5066316;28;19925;-73
2021/08/07 12:37:20;;;;;;;;;;;21.40;99.90;;;;;;5068227;28;19924;-72
2021/08/07 12:39:53;;;;;;;;;;;21.40;99.90;;;;;;5045761;28;20015;-73
2021/08/07 12:42:26;;;;;;;;;;;21.50;99.90;;;;;;5056811;28;19932;-73
2021/08/07 12:44:59;;;;;;;;;;;21.50;99.90;;;;;;5058662;28;19931;-72
2021/08/07 12:47:30;;;;;;;;;;;21.40;99.90;;;;;;5056663;28;19925;-73
2021/08/07 12:50:08;;;;;;;;;;;21.40;99.90;;;;;;5068165;28;20361;-72
2021/08/07 12:52:56;;;;;;;;;;;21.30;99.90;;;;;;5055695;28;20012;-73
2021/08/07 12:55:30;;;;;;;;;;;21.10;99.90;;;;;;5053349;28;19924;-73
2021/08/07 12:58:08;;;;;;;;;;;21.00;99.90;;;;;;5037308;28;19925;-73
2021/08/07 13:00:40;;;;;;;;;;;20.90;99.90;;;;;;5053706;28;19935;-72
2021/08/07 13:03:12;;;;;;;;;;;20.80;99.90;;;;;;5068741;28;19925;-73
2021/08/07 13:05:44;;;;;;;;;;;20.80;99.90;;;;;;5062070;28;19925;-73
2021/08/07 13:08:27;;;;;;;;;;;20.80;99.90;;;;;;5059718;28;20020;-72
2021/08/07 13:11:10;;;;;;;;;;;20.80;99.90;;;;;;5055276;28;20364;-74
2021/08/07 13:13:37;;;;;;;;;;;20.80;99.90;;;;;;5065946;28;19924;-72
2021/08/07 13:16:04;;;;;;;;;;;20.80;99.90;;;;;;5064837;28;20359;-73
2021/08/07 13:18:31;;;;;;;;;;;20.80;99.90;;;;;;5056966;28;20011;-73
2021/08/07 13:20:57;;;;;;;;;;;20.70;99.90;;;;;;5056582;28;20406;-73
2021/08/07 13:23:37;;;;;;;;;;;20.60;99.90;;;;;;5049404;28;20277;-73
2021/08/07 13:26:05;;;;;;;;;;;20.50;99.90;;;;;;5041555;28;20382;-73
2021/08/07 13:28:37;;;;;;;;;;;20.50;99.90;;;;;;5062565;28;19925;-73
2021/08/07 13:31:04;;;;;;;;;;;20.50;99.90;;;;;;5066115;28;20303;-73
2021/08/07 13:33:37;;;;;;;;;;;20.50;99.90;;;;;;5056448;28;20023;-72
2021/08/07 13:36:04;;;;;;;;;;;20.50;99.90;;;;;;5066746;28;20027;-73
2021/08/07 13:38:37;;;;;;;;;;;20.50;99.90;;;;;;5062674;28;19925;-73
2021/08/07 13:41:11;;;;;;;;;;;20.50;99.90;;;;;;5072200;28;19966;-72
2021/08/07 13:43:44;;;;;;;;;;;20.50;99.90;;;;;;5072427;28;19924;-73
2021/08/07 13:46:16;;;;;;;;;;;20.60;99.90;;;;;;5071909;28;20006;-73
2021/08/07 13:48:47;;;;;;;;;;;20.60;99.90;;;;;;5072244;28;19928;-73
2021/08/07 13:51:19;;;;;;;;;;;20.60;99.90;;;;;;5065571;28;19935;-73
2021/08/07 13:53:46;;;;;;;;;;;20.60;99.90;;;;;;5035364;28;20387;-73
2021/08/07 13:56:13;;;;;;;;;;;20.60;99.90;;;;;;5067449;28;19925;-73
2021/08/07 13:58:44;;;;;;;;;;;20.40;99.90;;;;;;5053642;28;19925;-72
2021/08/07 14:01:16;;;;;;;;;;;20.30;99.90;;;;;;5051724;28;19929;-71
2021/08/07 14:03:43;;;;;;;;;;;20.10;99.90;;;;;;5052307;28;19925;-71
2021/08/07 14:06:15;;;;;;;;;;;19.90;99.90;;;;;;5051502;28;19925;-72
2021/08/07 14:08:48;;;;;;;;;;;19.80;99.90;;;;;;5051458;28;19924;-71
2021/08/07 14:11:20;;;;;;;;;;;19.50;99.90;;;;;;5041326;28;19931;-72
2021/08/07 14:13:52;;;;;;;;;;;19.30;99.90;;;;;;5072277;28;19925;-71
2021/08/07 14:16:24;;;;;;;;;;;19.00;99.90;;;;;;5074699;28;19934;-71
2021/08/07 14:18:55;;;;;;;;;;;18.60;99.90;;;;;;5071496;28;20434;-71
2021/08/07 14:21:22;;;;;;;;;;;18.40;99.90;;;;;;5053457;28;20095;-71
2021/08/07 14:23:54;;;;;;;;;;;18.10;99.90;;;;;;5068132;28;20429;-71
2021/08/07 14:26:25;;;;;;;;;;;17.90;99.90;;;;;;5069835;28;19930;-72
2021/08/07 14:28:52;;;;;;;;;;;17.80;99.90;;;;;;5054875;28;19963;-72
2021/08/07 14:31:24;;;;;;;;;;;17.80;99.90;;;;;;5072358;28;19924;-72
2021/08/07 14:33:57;;;;;;;;;;;17.70;99.90;;;;;;5071089;28;19924;-71
2021/08/07 14:36:28;;;;;;;;;;;17.60;99.90;;;;;;5055199;28;19931;-72
2021/08/07 14:38:55;;;;;;;;;;;17.50;99.90;;;;;;5071161;28;20325;-71
2021/08/07 14:41:22;;;;;;;;;;;17.40;99.90;;;;;;5054118;28;19968;-73
2021/08/07 14:43:50;;;;;;;;;;;17.20;99.90;;;;;;5071108;28;20022;-73
2021/08/07 14:46:22;;;;;;;;;;;17.10;99.90;;;;;;5055131;28;19930;-75
2021/08/07 14:48:54;;;;;;;;;;;17.00;99.90;;;;;;5041477;28;19948;-73